Terminal Aerodrome Forecast
Issued by NWS Wilmington, NC

Home | Current Version | Previous Version | Text Only | Print | Product List | Glossary On
Versions: 1 2 3 4 5 6 7 8 9 10 11 12 13
397
FTUS42 KILM 220520
TAFILM
TAF
KILM 220520Z 2206/2306 08003KT P6SM SCT250
     FM221400 09008KT P6SM FEW035
     FM222200 13011KT P6SM OVC150
     FM230500 09007KT P6SM OVC100=

USA.gov is the U.S. government's official web portal to all federal, state and local government web resources and services.